Terminal Aerodrome Forecast
Issued by NWS

Home | Current Version | Previous Version | Text Only | Print | Product List | Glossary On
Versions: 1 2 3 4 5 6 7 8 9 10 11 12 13 14 15
687
FTUS42 KTBW 242320
TAFPIE
TAF
KPIE 242320Z 2500/2524 28007KT P6SM FEW040 SCT100
     FM250200 VRB03KT P6SM VCSH SCT035 BKN100
     FM250400 00000KT P6SM FEW030 SCT100 SCT250
     FM251400 14005KT P6SM SCT030 BKN100
     FM251800 23006KT P6SM VCTS SCT040CB BKN100
     FM252100 31008KT P6SM SCT040 BKN100=

USA.gov is the U.S. government's official web portal to all federal, state and local government web resources and services.